sensor_id;sensor_type;location;lat;lon;timestamp;temperature;humidity
46458;DHT22;32155;54.076;12.092;2023-06-14T00:01:47;14.50;99.90
46458;DHT22;32155;54.076;12.092;2023-06-14T00:04:13;14.50;99.90
46458;DHT22;32155;54.076;12.092;2023-06-14T00:06:42;14.50;99.90
46458;DHT22;32155;54.076;12.092;2023-06-14T00:09:07;14.50;99.90
46458;DHT22;32155;54.076;12.092;2023-06-14T00:11:34;14.40;99.90
46458;DHT22;32155;54.076;12.092;2023-06-14T00:13:59;14.40;99.90
46458;DHT22;32155;54.076;12.092;2023-06-14T00:16:29;14.40;99.90
46458;DHT22;32155;54.076;12.092;2023-06-14T00:18:58;14.40;99.90
46458;DHT22;32155;54.076;12.092;2023-06-14T00:21:23;14.50;99.90
46458;DHT22;32155;54.076;12.092;2023-06-14T00:23:49;14.40;99.90
46458;DHT22;32155;54.076;12.092;2023-06-14T00:26:14;14.30;99.90
46458;DHT22;32155;54.076;12.092;2023-06-14T00:28:40;14.30;99.90
46458;DHT22;32155;54.076;12.092;2023-06-14T00:31:06;14.30;99.90
46458;DHT22;32155;54.076;12.092;2023-06-14T00:33:31;14.30;99.90
46458;DHT22;32155;54.076;12.092;2023-06-14T00:35:57;14.20;99.90
46458;DHT22;32155;54.076;12.092;2023-06-14T00:38:22;14.30;99.90
46458;DHT22;32155;54.076;12.092;2023-06-14T00:40:48;14.30;99.90
46458;DHT22;32155;54.076;12.092;2023-06-14T00:43:13;14.20;99.90
46458;DHT22;32155;54.076;12.092;2023-06-14T00:45:39;14.30;99.90
46458;DHT22;32155;54.076;12.092;2023-06-14T00:48:04;14.20;99.90
46458;DHT22;32155;54.076;12.092;2023-06-14T00:50:31;14.10;99.90
46458;DHT22;32155;54.076;12.092;2023-06-14T00:52:59;14.10;99.90
46458;DHT22;32155;54.076;12.092;2023-06-14T00:55:25;14.10;99.90
46458;DHT22;32155;54.076;12.092;2023-06-14T00:57:53;14.20;99.90
46458;DHT22;32155;54.076;12.092;2023-06-14T01:00:19;14.10;99.90
46458;DHT22;32155;54.076;12.092;2023-06-14T01:02:44;14.10;99.90
46458;DHT22;32155;54.076;12.092;2023-06-14T01:05:10;14.00;99.90
46458;DHT22;32155;54.076;12.092;2023-06-14T01:12:39;14.00;99.90
46458;DHT22;32155;54.076;12.092;2023-06-14T01:15:10;14.00;99.90
46458;DHT22;32155;54.076;12.092;2023-06-14T01:17:38;14.00;99.90
46458;DHT22;32155;54.076;12.092;2023-06-14T01:20:10;14.00;99.90
46458;DHT22;32155;54.076;12.092;2023-06-14T01:22:50;14.00;99.90
46458;DHT22;32155;54.076;12.092;2023-06-14T01:25:17;14.00;99.90
46458;DHT22;32155;54.076;12.092;2023-06-14T01:27:47;13.90;99.90
46458;DHT22;32155;54.076;12.092;2023-06-14T01:30:13;13.90;99.90
46458;DHT22;32155;54.076;12.092;2023-06-14T01:32:39;13.80;99.90
46458;DHT22;32155;54.076;12.092;2023-06-14T01:35:05;13.80;99.90
46458;DHT22;32155;54.076;12.092;2023-06-14T01:37:31;13.80;99.90
46458;DHT22;32155;54.076;12.092;2023-06-14T01:39:56;13.80;99.90
46458;DHT22;32155;54.076;12.092;2023-06-14T01:42:22;13.80;99.90
46458;DHT22;32155;54.076;12.092;2023-06-14T01:44:48;13.80;99.90
46458;DHT22;32155;54.076;12.092;2023-06-14T01:47:16;13.70;99.90
46458;DHT22;32155;54.076;12.092;2023-06-14T01:49:42;13.70;99.90
46458;DHT22;32155;54.076;12.092;2023-06-14T01:52:07;13.70;99.90
46458;DHT22;32155;54.076;12.092;2023-06-14T01:54:35;13.60;99.90
46458;DHT22;32155;54.076;12.092;2023-06-14T01:57:03;13.70;99.90
46458;DHT22;32155;54.076;12.092;2023-06-14T01:59:32;13.60;99.90
46458;DHT22;32155;54.076;12.092;2023-06-14T02:02:01;13.60;99.90
46458;DHT22;32155;54.076;12.092;2023-06-14T02:04:26;13.60;99.90
46458;DHT22;32155;54.076;12.092;2023-06-14T02:06:52;13.60;99.90
46458;DHT22;32155;54.076;12.092;2023-06-14T02:09:17;13.50;99.90
46458;DHT22;32155;54.076;12.092;2023-06-14T02:11:43;13.50;99.90
46458;DHT22;32155;54.076;12.092;2023-06-14T02:14:08;13.50;99.90
46458;DHT22;32155;54.076;12.092;2023-06-14T02:16:37;13.50;99.90
46458;DHT22;32155;54.076;12.092;2023-06-14T02:19:05;13.50;99.90
46458;DHT22;32155;54.076;12.092;2023-06-14T02:21:30;13.50;99.90
46458;DHT22;32155;54.076;12.092;2023-06-14T02:23:58;13.50;99.90
46458;DHT22;32155;54.076;12.092;2023-06-14T02:26:24;13.40;99.90
46458;DHT22;32155;54.076;12.092;2023-06-14T02:28:54;13.40;99.90
46458;DHT22;32155;54.076;12.092;2023-06-14T02:31:19;13.30;99.90
46458;DHT22;32155;54.076;12.092;2023-06-14T02:33:45;13.30;99.90
46458;DHT22;32155;54.076;12.092;2023-06-14T02:36:11;13.30;99.90
46458;DHT22;32155;54.076;12.092;2023-06-14T02:38:36;13.30;99.90
46458;DHT22;32155;54.076;12.092;2023-06-14T02:41:02;13.20;99.90
46458;DHT22;32155;54.076;12.092;2023-06-14T02:43:28;13.20;99.90
46458;DHT22;32155;54.076;12.092;2023-06-14T02:45:54;13.20;99.90
46458;DHT22;32155;54.076;12.092;2023-06-14T02:48:19;13.20;99.90
46458;DHT22;32155;54.076;12.092;2023-06-14T02:50:48;13.20;99.90
46458;DHT22;32155;54.076;12.092;2023-06-14T02:53:13;13.20;99.90
46458;DHT22;32155;54.076;12.092;2023-06-14T02:55:41;13.20;99.90
46458;DHT22;32155;54.076;12.092;2023-06-14T02:58:07;13.20;99.90
46458;DHT22;32155;54.076;12.092;2023-06-14T03:00:33;13.20;99.90
46458;DHT22;32155;54.076;12.092;2023-06-14T03:03:00;13.20;99.90
46458;DHT22;32155;54.076;12.092;2023-06-14T03:05:27;13.20;99.90
46458;DHT22;32155;54.076;12.092;2023-06-14T03:07:53;13.20;99.90
46458;DHT22;32155;54.076;12.092;2023-06-14T03:10:22;13.20;99.90
46458;DHT22;32155;54.076;12.092;2023-06-14T03:12:47;13.20;99.90
46458;DHT22;32155;54.076;12.092;2023-06-14T03:15:16;13.30;99.90
46458;DHT22;32155;54.076;12.092;2023-06-14T03:17:42;13.30;99.90
46458;DHT22;32155;54.076;12.092;2023-06-14T03:20:10;13.30;99.90
46458;DHT22;32155;54.076;12.092;2023-06-14T03:22:38;13.30;99.90
46458;DHT22;32155;54.076;12.092;2023-06-14T03:25:06;13.40;99.90
46458;DHT22;32155;54.076;12.092;2023-06-14T03:27:34;13.40;99.90
46458;DHT22;32155;54.076;12.092;2023-06-14T03:30:03;13.40;99.90
46458;DHT22;32155;54.076;12.092;2023-06-14T03:32:31;13.50;99.90
46458;DHT22;32155;54.076;12.092;2023-06-14T03:34:58;13.50;99.90
46458;DHT22;32155;54.076;12.092;2023-06-14T03:37:26;13.50;99.90
46458;DHT22;32155;54.076;12.092;2023-06-14T03:39:52;13.50;99.90
46458;DHT22;32155;54.076;12.092;2023-06-14T03:42:17;13.60;99.90
46458;DHT22;32155;54.076;12.092;2023-06-14T03:44:43;13.60;99.90
46458;DHT22;32155;54.076;12.092;2023-06-14T03:47:09;13.70;99.90
46458;DHT22;32155;54.076;12.092;2023-06-14T03:49:35;13.70;99.90
46458;DHT22;32155;54.076;12.092;2023-06-14T03:52:00;13.80;99.90
46458;DHT22;32155;54.076;12.092;2023-06-14T03:54:27;13.80;99.90
46458;DHT22;32155;54.076;12.092;2023-06-14T03:56:53;13.90;99.90
46458;DHT22;32155;54.076;12.092;2023-06-14T04:02:46;14.00;99.90
46458;DHT22;32155;54.076;12.092;2023-06-14T04:05:24;14.10;99.90
46458;DHT22;32155;54.076;12.092;2023-06-14T04:08:10;14.20;99.90
46458;DHT22;32155;54.076;12.092;2023-06-14T04:11:10;14.30;99.90
46458;DHT22;32155;54.076;12.092;2023-06-14T04:14:22;14.30;99.90
46458;DHT22;32155;54.076;12.092;2023-06-14T04:17:10;14.50;99.90
46458;DHT22;32155;54.076;12.092;2023-06-14T04:19:38;14.50;99.90
46458;DHT22;32155;54.076;12.092;2023-06-14T04:22:11;14.60;99.90
46458;DHT22;32155;54.076;12.092;2023-06-14T04:24:39;14.70;99.90
46458;DHT22;32155;54.076;12.092;2023-06-14T04:27:28;14.70;99.90
46458;DHT22;32155;54.076;12.092;2023-06-14T04:33:20;14.90;99.90
46458;DHT22;32155;54.076;12.092;2023-06-14T04:35:46;15.00;99.90
46458;DHT22;32155;54.076;12.092;2023-06-14T04:38:19;15.10;99.90
46458;DHT22;32155;54.076;12.092;2023-06-14T04:40:50;15.20;99.90
46458;DHT22;32155;54.076;12.092;2023-06-14T04:43:18;15.30;99.90
46458;DHT22;32155;54.076;12.092;2023-06-14T04:45:50;15.40;99.90
46458;DHT22;32155;54.076;12.092;2023-06-14T04:48:17;15.50;99.90
46458;DHT22;32155;54.076;12.092;2023-06-14T06:23:37;22.20;99.90
46458;DHT22;32155;54.076;12.092;2023-06-14T14:10:13;26.30;54.20
46458;DHT22;32155;54.076;12.092;2023-06-14T14:12:38;26.20;54.10
46458;DHT22;32155;54.076;12.092;2023-06-14T14:15:05;26.00;54.50
46458;DHT22;32155;54.076;12.092;2023-06-14T14:17:37;26.10;55.30
46458;DHT22;32155;54.076;12.092;2023-06-14T14:20:10;26.10;54.40
46458;DHT22;32155;54.076;12.092;2023-06-14T14:22:49;26.20;56.20
46458;DHT22;32155;54.076;12.092;2023-06-14T14:25:33;26.30;55.60
46458;DHT22;32155;54.076;12.092;2023-06-14T14:28:07;26.40;56.90
46458;DHT22;32155;54.076;12.092;2023-06-14T14:30:33;26.30;58.60
46458;DHT22;32155;54.076;12.092;2023-06-14T14:33:00;26.30;58.90
46458;DHT22;32155;54.076;12.092;2023-06-14T14:35:26;26.10;55.10
46458;DHT22;32155;54.076;12.092;2023-06-14T14:37:55;26.00;57.20
46458;DHT22;32155;54.076;12.092;2023-06-14T14:40:32;25.90;59.30
46458;DHT22;32155;54.076;12.092;2023-06-14T14:42:58;26.10;60.80
46458;DHT22;32155;54.076;12.092;2023-06-14T14:45:27;26.20;60.90
46458;DHT22;32155;54.076;12.092;2023-06-14T14:47:56;26.10;61.80
46458;DHT22;32155;54.076;12.092;2023-06-14T14:50:22;25.90;62.90
46458;DHT22;32155;54.076;12.092;2023-06-14T14:52:50;25.90;61.40
46458;DHT22;32155;54.076;12.092;2023-06-14T14:55:28;25.70;58.20
46458;DHT22;32155;54.076;12.092;2023-06-14T14:57:54;25.70;57.70
46458;DHT22;32155;54.076;12.092;2023-06-14T15:00:20;25.70;57.10
46458;DHT22;32155;54.076;12.092;2023-06-14T15:02:49;25.50;55.70
46458;DHT22;32155;54.076;12.092;2023-06-14T15:05:17;25.20;55.00
46458;DHT22;32155;54.076;12.092;2023-06-14T15:07:43;25.00;55.60
46458;DHT22;32155;54.076;12.092;2023-06-14T15:10:13;25.10;56.60
46458;DHT22;32155;54.076;12.092;2023-06-14T15:15:30;25.20;56.40
46458;DHT22;32155;54.076;12.092;2023-06-14T15:17:55;25.30;55.90
46458;DHT22;32155;54.076;12.092;2023-06-14T15:20:23;25.30;55.50
46458;DHT22;32155;54.076;12.092;2023-06-14T15:23:12;25.40;55.70
46458;DHT22;32155;54.076;12.092;2023-06-14T15:25:45;25.40;56.30
46458;DHT22;32155;54.076;12.092;2023-06-14T15:28:17;25.30;55.70
46458;DHT22;32155;54.076;12.092;2023-06-14T15:30:46;25.40;56.50
46458;DHT22;32155;54.076;12.092;2023-06-14T15:33:39;25.40;55.90
46458;DHT22;32155;54.076;12.092;2023-06-14T15:36:05;25.30;55.60
46458;DHT22;32155;54.076;12.092;2023-06-14T15:38:48;25.30;55.90
46458;DHT22;32155;54.076;12.092;2023-06-14T15:41:13;25.30;56.20
46458;DHT22;32155;54.076;12.092;2023-06-14T15:43:39;25.10;55.70
46458;DHT22;32155;54.076;12.092;2023-06-14T15:48:55;25.00;56.40
46458;DHT22;32155;54.076;12.092;2023-06-14T15:51:29;24.90;56.70
46458;DHT22;32155;54.076;12.092;2023-06-14T15:53:55;24.80;57.40
46458;DHT22;32155;54.076;12.092;2023-06-14T15:56:21;24.70;58.00
46458;DHT22;32155;54.076;12.092;2023-06-14T15:58:46;24.90;58.30
46458;DHT22;32155;54.076;12.092;2023-06-14T16:01:13;24.60;58.70
46458;DHT22;32155;54.076;12.092;2023-06-14T16:03:42;24.50;58.90
46458;DHT22;32155;54.076;12.092;2023-06-14T16:06:07;24.50;58.40
46458;DHT22;32155;54.076;12.092;2023-06-14T16:08:33;24.50;58.70
46458;DHT22;32155;54.076;12.092;2023-06-14T16:10:58;24.50;59.00
46458;DHT22;32155;54.076;12.092;2023-06-14T16:13:24;24.60;59.20
46458;DHT22;32155;54.076;12.092;2023-06-14T16:16:01;24.50;58.60
46458;DHT22;32155;54.076;12.092;2023-06-14T16:18:35;24.50;58.00
46458;DHT22;32155;54.076;12.092;2023-06-14T16:21:24;24.40;58.60
46458;DHT22;32155;54.076;12.092;2023-06-14T16:23:51;24.40;58.30
46458;DHT22;32155;54.076;12.092;2023-06-14T16:26:25;24.40;58.70
46458;DHT22;32155;54.076;12.092;2023-06-14T16:28:52;24.40;59.20
46458;DHT22;32155;54.076;12.092;2023-06-14T16:31:27;24.50;58.90
46458;DHT22;32155;54.076;12.092;2023-06-14T16:33:58;24.50;58.90
46458;DHT22;32155;54.076;12.092;2023-06-14T16:36:33;24.40;59.70
46458;DHT22;32155;54.076;12.092;2023-06-14T16:39:14;24.30;59.50
46458;DHT22;32155;54.076;12.092;2023-06-14T16:50:22;24.20;60.20
46458;DHT22;32155;54.076;12.092;2023-06-14T16:52:48;24.10;60.40
46458;DHT22;32155;54.076;12.092;2023-06-14T16:55:19;24.10;60.30
46458;DHT22;32155;54.076;12.092;2023-06-14T16:57:45;24.10;61.30
46458;DHT22;32155;54.076;12.092;2023-06-14T17:00:11;24.10;60.00
46458;DHT22;32155;54.076;12.092;2023-06-14T17:02:43;24.10;61.30
46458;DHT22;32155;54.076;12.092;2023-06-14T17:05:19;24.00;60.80
46458;DHT22;32155;54.076;12.092;2023-06-14T17:07:48;23.90;60.20
46458;DHT22;32155;54.076;12.092;2023-06-14T17:10:14;23.90;60.00
46458;DHT22;32155;54.076;12.092;2023-06-14T17:12:48;23.70;60.80
46458;DHT22;32155;54.076;12.092;2023-06-14T17:15:17;23.60;60.70
46458;DHT22;32155;54.076;12.092;2023-06-14T17:17:42;23.50;59.80
46458;DHT22;32155;54.076;12.092;2023-06-14T17:22:57;23.40;61.40
46458;DHT22;32155;54.076;12.092;2023-06-14T17:25:39;23.50;61.70
46458;DHT22;32155;54.076;12.092;2023-06-14T17:31:13;23.30;62.40
46458;DHT22;32155;54.076;12.092;2023-06-14T17:34:20;23.40;63.70
46458;DHT22;32155;54.076;12.092;2023-06-14T17:36:51;23.40;63.50
46458;DHT22;32155;54.076;12.092;2023-06-14T17:39:31;23.40;63.30
46458;DHT22;32155;54.076;12.092;2023-06-14T17:42:26;23.30;63.50
46458;DHT22;32155;54.076;12.092;2023-06-14T17:45:35;23.30;63.10
46458;DHT22;32155;54.076;12.092;2023-06-14T17:48:22;23.20;63.50
46458;DHT22;32155;54.076;12.092;2023-06-14T17:51:02;23.20;64.30
46458;DHT22;32155;54.076;12.092;2023-06-14T18:05:35;22.80;65.50
46458;DHT22;32155;54.076;12.092;2023-06-14T18:08:28;22.80;66.00
46458;DHT22;32155;54.076;12.092;2023-06-14T18:11:34;22.70;65.60
46458;DHT22;32155;54.076;12.092;2023-06-14T18:14:24;22.50;66.80
46458;DHT22;32155;54.076;12.092;2023-06-14T18:17:17;22.40;66.60
46458;DHT22;32155;54.076;12.092;2023-06-14T18:22:54;22.10;68.60
46458;DHT22;32155;54.076;12.092;2023-06-14T18:32:06;21.80;68.80
46458;DHT22;32155;54.076;12.092;2023-06-14T18:44:38;21.40;71.60
46458;DHT22;32155;54.076;12.092;2023-06-14T18:50:22;21.10;72.30
46458;DHT22;32155;54.076;12.092;2023-06-14T18:52:48;20.90;73.00
46458;DHT22;32155;54.076;12.092;2023-06-14T18:58:13;20.60;74.60
46458;DHT22;32155;54.076;12.092;2023-06-14T19:03:50;20.50;75.80
46458;DHT22;32155;54.076;12.092;2023-06-14T19:06:45;20.40;75.70
46458;DHT22;32155;54.076;12.092;2023-06-14T19:09:34;20.30;75.60
46458;DHT22;32155;54.076;12.092;2023-06-14T19:18:22;20.00;76.40
46458;DHT22;32155;54.076;12.092;2023-06-14T19:27:21;19.60;78.10
46458;DHT22;32155;54.076;12.092;2023-06-14T19:33:21;19.40;78.70
46458;DHT22;32155;54.076;12.092;2023-06-14T19:38:51;19.30;80.10
46458;DHT22;32155;54.076;12.092;2023-06-14T19:44:42;19.00;81.20
46458;DHT22;32155;54.076;12.092;2023-06-14T19:50:22;18.80;83.60
46458;DHT22;32155;54.076;12.092;2023-06-14T19:52:48;18.70;84.70
46458;DHT22;32155;54.076;12.092;2023-06-14T19:58:22;18.50;87.80
46458;DHT22;32155;54.076;12.092;2023-06-14T20:00:59;18.40;89.10
46458;DHT22;32155;54.076;12.092;2023-06-14T20:06:32;18.30;91.50
46458;DHT22;32155;54.076;12.092;2023-06-14T20:09:18;18.20;93.00
46458;DHT22;32155;54.076;12.092;2023-06-14T20:11:44;18.10;93.30
46458;DHT22;32155;54.076;12.092;2023-06-14T20:23:18;17.80;96.30
46458;DHT22;32155;54.076;12.092;2023-06-14T20:26:14;17.70;97.50
46458;DHT22;32155;54.076;12.092;2023-06-14T20:29:03;17.60;98.30
46458;DHT22;32155;54.076;12.092;2023-06-14T20:32:13;17.50;99.90
46458;DHT22;32155;54.076;12.092;2023-06-14T20:40:58;17.30;99.90
46458;DHT22;32155;54.076;12.092;2023-06-14T20:43:32;17.20;99.90
46458;DHT22;32155;54.076;12.092;2023-06-14T20:46:41;17.10;99.90
46458;DHT22;32155;54.076;12.092;2023-06-14T20:49:09;17.00;99.90
46458;DHT22;32155;54.076;12.092;2023-06-14T20:51:41;17.00;99.90
46458;DHT22;32155;54.076;12.092;2023-06-14T20:54:31;17.00;99.90
46458;DHT22;32155;54.076;12.092;2023-06-14T21:00:11;16.90;99.90
46458;DHT22;32155;54.076;12.092;2023-06-14T21:02:57;16.80;99.90
46458;DHT22;32155;54.076;12.092;2023-06-14T21:05:36;16.70;99.90
46458;DHT22;32155;54.076;12.092;2023-06-14T21:11:30;16.70;99.90
46458;DHT22;32155;54.076;12.092;2023-06-14T21:14:20;16.60;99.90
46458;DHT22;32155;54.076;12.092;2023-06-14T21:17:04;16.50;99.90
46458;DHT22;32155;54.076;12.092;2023-06-14T21:19:40;16.60;99.90
46458;DHT22;32155;54.076;12.092;2023-06-14T21:22:34;16.50;99.90
46458;DHT22;32155;54.076;12.092;2023-06-14T21:25:09;16.50;99.90
46458;DHT22;32155;54.076;12.092;2023-06-14T21:27:37;16.50;99.90
46458;DHT22;32155;54.076;12.092;2023-06-14T21:33:30;16.40;99.90
46458;DHT22;32155;54.076;12.092;2023-06-14T21:36:02;16.40;99.90
46458;DHT22;32155;54.076;12.092;2023-06-14T21:38:28;16.40;99.90
46458;DHT22;32155;54.076;12.092;2023-06-14T21:40:59;16.40;99.90
46458;DHT22;32155;54.076;12.092;2023-06-14T21:43:32;16.40;99.90
46458;DHT22;32155;54.076;12.092;2023-06-14T21:45:58;16.40;99.90
46458;DHT22;32155;54.076;12.092;2023-06-14T21:48:30;16.30;99.90
46458;DHT22;32155;54.076;12.092;2023-06-14T21:51:01;16.30;99.90
46458;DHT22;32155;54.076;12.092;2023-06-14T21:53:30;16.20;99.90
46458;DHT22;32155;54.076;12.092;2023-06-14T21:55:59;16.20;99.90
46458;DHT22;32155;54.076;12.092;2023-06-14T21:58:24;16.20;99.90
46458;DHT22;32155;54.076;12.092;2023-06-14T22:00:51;16.10;99.90
46458;DHT22;32155;54.076;12.092;2023-06-14T22:03:16;16.00;99.90
46458;DHT22;32155;54.076;12.092;2023-06-14T22:05:42;16.00;99.90
46458;DHT22;32155;54.076;12.092;2023-06-14T22:08:08;16.00;99.90
46458;DHT22;32155;54.076;12.092;2023-06-14T22:10:34;15.90;99.90
46458;DHT22;32155;54.076;12.092;2023-06-14T22:13:00;15.80;99.90
46458;DHT22;32155;54.076;12.092;2023-06-14T22:15:26;15.80;99.90
46458;DHT22;32155;54.076;12.092;2023-06-14T22:17:53;15.70;99.90
46458;DHT22;32155;54.076;12.092;2023-06-14T22:20:22;15.70;99.90
46458;DHT22;32155;54.076;12.092;2023-06-14T22:22:49;15.70;99.90
46458;DHT22;32155;54.076;12.092;2023-06-14T22:25:15;15.70;99.90
46458;DHT22;32155;54.076;12.092;2023-06-14T22:27:52;15.60;99.90
46458;DHT22;32155;54.076;12.092;2023-06-14T22:30:34;15.60;99.90
46458;DHT22;32155;54.076;12.092;2023-06-14T22:33:58;15.50;99.90
46458;DHT22;32155;54.076;12.092;2023-06-14T22:36:16;15.50;99.90
46458;DHT22;32155;54.076;12.092;2023-06-14T22:38:44;15.50;99.90
46458;DHT22;32155;54.076;12.092;2023-06-14T22:42:06;15.50;99.90
46458;DHT22;32155;54.076;12.092;2023-06-14T22:44:29;15.50;99.90
46458;DHT22;32155;54.076;12.092;2023-06-14T22:47:00;15.40;99.90
46458;DHT22;32155;54.076;12.092;2023-06-14T22:52:19;15.40;99.90
46458;DHT22;32155;54.076;12.092;2023-06-14T22:55:19;15.30;99.90
46458;DHT22;32155;54.076;12.092;2023-06-14T23:01:02;15.30;99.90
46458;DHT22;32155;54.076;12.092;2023-06-14T23:09:13;15.10;99.90
46458;DHT22;32155;54.076;12.092;2023-06-14T23:14:50;15.10;99.90
46458;DHT22;32155;54.076;12.092;2023-06-14T23:17:39;15.10;99.90
46458;DHT22;32155;54.076;12.092;2023-06-14T23:20:06;15.00;99.90
46458;DHT22;32155;54.076;12.092;2023-06-14T23:32:27;14.80;99.90
46458;DHT22;32155;54.076;12.092;2023-06-14T23:35:20;14.80;99.90
46458;DHT22;32155;54.076;12.092;2023-06-14T23:41:11;14.70;99.90
46458;DHT22;32155;54.076;12.092;2023-06-14T23:59:46;14.60;99.90
